createdAt,value
2022-11-23T00:01:29.722Z,3.70
2022-11-23T00:06:33.006Z,3.10
2022-11-23T00:11:36.520Z,3.13
2022-11-23T00:16:40.613Z,3.30
2022-11-23T00:21:43.382Z,3.43
2022-11-23T00:26:46.087Z,3.17
2022-11-23T00:31:50.370Z,2.70
2022-11-23T00:36:53.133Z,3.37
2022-11-23T00:41:55.935Z,3.13
2022-11-23T00:47:00.132Z,3.00
2022-11-23T00:52:03.077Z,3.43
2022-11-23T00:57:06.208Z,3.20
2022-11-23T01:02:10.389Z,2.90
2022-11-23T01:07:13.515Z,2.90
2022-11-23T01:12:16.336Z,3.20
2022-11-23T01:17:24.618Z,2.67
2022-11-23T01:22:27.608Z,3.20
2022-11-23T01:27:30.445Z,2.83
2022-11-23T01:32:36.339Z,3.30
2022-11-23T01:37:39.959Z,3.40
2022-11-23T01:42:50.985Z,3.50
2022-11-23T01:47:55.173Z,3.03
2022-11-23T01:52:58.393Z,3.00
2022-11-23T01:58:02.369Z,3.07
2022-11-23T02:03:07.240Z,2.77
2022-11-23T02:08:11.154Z,2.87
2022-11-23T02:13:14.982Z,2.80
2022-11-23T02:18:22.880Z,2.63
2022-11-23T02:23:33.955Z,2.47
2022-11-23T02:28:41.181Z,2.97
2022-11-23T02:33:43.952Z,2.93
2022-11-23T02:38:46.734Z,2.67
2022-11-23T02:43:53.775Z,2.30
2022-11-23T02:48:56.509Z,3.23
2022-11-23T02:54:04.431Z,2.60
2022-11-23T02:59:08.850Z,2.40
2022-11-23T03:04:12.014Z,3.20
2022-11-23T03:09:14.867Z,2.53
2022-11-23T03:14:19.574Z,2.43
2022-11-23T03:19:26.793Z,2.53
2022-11-23T03:24:30.030Z,2.90
2022-11-23T03:29:34.923Z,2.57
2022-11-23T03:34:44.387Z,2.80
2022-11-23T03:39:47.806Z,2.90
2022-11-23T03:45:00.716Z,2.97
2022-11-23T03:50:03.561Z,2.80
2022-11-23T03:55:08.514Z,3.07
2022-11-23T04:00:15.040Z,2.93
2022-11-23T04:05:20.867Z,3.43
2022-11-23T04:10:57.775Z,3.10
2022-11-23T04:16:12.185Z,3.20
2022-11-23T04:21:15.059Z,3.70
2022-11-23T04:26:19.214Z,3.90
2022-11-23T04:31:24.529Z,4.13
2022-11-23T04:36:36.845Z,3.90
2022-11-23T04:41:40.499Z,3.70
2022-11-23T04:46:44.886Z,2.97
2022-11-23T04:51:49.873Z,3.77
2022-11-23T04:56:56.219Z,3.73
2022-11-23T05:02:00.386Z,3.33
2022-11-23T05:07:15.514Z,3.73
2022-11-23T05:12:21.797Z,3.90
2022-11-23T05:17:26.016Z,3.50
2022-11-23T05:22:30.385Z,4.43
2022-11-23T05:27:33.466Z,3.43
2022-11-23T05:32:37.689Z,3.73
2022-11-23T05:37:41.961Z,3.70
2022-11-23T05:42:47.427Z,2.90
2022-11-23T05:47:58.945Z,4.07
2022-11-23T05:53:17.044Z,3.30
2022-11-23T05:58:22.590Z,5.00
2022-11-23T06:03:27.043Z,4.77
2022-11-23T06:08:30.557Z,4.10
2022-11-23T06:13:35.011Z,3.00
2022-11-23T06:18:39.248Z,4.97
2022-11-23T06:23:42.022Z,4.33
2022-11-23T06:28:44.903Z,4.03
2022-11-23T06:33:49.107Z,4.40
2022-11-23T06:38:52.679Z,3.63
2022-11-23T06:43:59.452Z,4.20
2022-11-23T06:49:17.105Z,3.67
2022-11-23T06:54:27.340Z,3.87
2022-11-23T06:59:31.546Z,3.37
2022-11-23T07:04:36.169Z,4.17
2022-11-23T07:09:43.493Z,3.03
2022-11-23T07:15:03.337Z,3.20
2022-11-23T07:20:13.643Z,5.17
2022-11-23T07:25:19.004Z,3.23
2022-11-23T07:30:25.289Z,3.73
2022-11-23T07:35:33.756Z,3.93
2022-11-23T07:40:37.811Z,4.17
2022-11-23T07:45:40.740Z,3.77
2022-11-23T07:50:49.470Z,3.37
2022-11-23T07:55:57.102Z,5.83
2022-11-23T08:00:59.860Z,6.83
2022-11-23T08:06:03.948Z,5.20
2022-11-23T08:11:06.897Z,4.40
2022-11-23T08:16:09.875Z,4.17
2022-11-23T08:21:13.941Z,3.77
2022-11-23T08:26:16.646Z,4.13
2022-11-23T08:31:19.403Z,4.50
2022-11-23T08:36:23.536Z,4.30
2022-11-23T08:41:26.243Z,4.23
2022-11-23T08:46:28.972Z,3.63
2022-11-23T08:51:33.060Z,3.93
2022-11-23T08:56:35.912Z,4.22
2022-11-23T09:01:38.714Z,3.60
2022-11-23T09:06:42.806Z,3.30
2022-11-23T09:11:45.593Z,3.57
2022-11-23T09:16:48.394Z,3.17
2022-11-23T09:21:52.505Z,3.47
2022-11-23T09:26:55.377Z,3.27
2022-11-23T09:31:58.101Z,3.08
2022-11-23T09:37:02.279Z,2.72
2022-11-23T09:42:21.799Z,2.83
2022-11-23T09:47:39.751Z,3.13
2022-11-23T09:52:46.630Z,3.13
2022-11-23T09:57:50.287Z,3.15
2022-11-23T10:02:53.459Z,3.38
2022-11-23T10:08:06.159Z,3.13
2022-11-23T10:13:23.067Z,3.05
2022-11-23T10:18:32.044Z,3.00
2022-11-23T10:23:57.379Z,3.00
2022-11-23T10:29:10.957Z,3.00
2022-11-23T10:34:15.386Z,2.75
2022-11-23T10:39:23.895Z,3.42
2022-11-23T10:44:31.859Z,3.38
2022-11-23T10:49:36.870Z,3.30
2022-11-23T10:54:49.186Z,3.53
2022-11-23T10:59:58.818Z,3.20
2022-11-23T11:05:46.432Z,2.85
2022-11-23T11:10:51.969Z,3.10
2022-11-23T11:15:56.839Z,2.80
2022-11-23T11:21:02.918Z,2.72
2022-11-23T11:26:10.754Z,3.17
2022-11-23T11:31:29.472Z,2.75
2022-11-23T11:36:37.493Z,2.70
2022-11-23T11:41:43.982Z,2.88
2022-11-23T11:46:49.281Z,3.17
2022-11-23T11:51:56.315Z,2.92
2022-11-23T11:57:04.506Z,2.80
2022-11-23T12:02:17.905Z,2.90
2022-11-23T12:07:25.890Z,2.67
2022-11-23T12:12:30.448Z,2.67
2022-11-23T12:17:55.913Z,2.53
2022-11-23T12:23:11.248Z,2.50
2022-11-23T12:28:33.779Z,2.20
2022-11-23T12:33:49.072Z,2.45
2022-11-23T12:38:56.252Z,2.53
2022-11-23T12:44:27.649Z,2.72
2022-11-23T12:49:39.440Z,2.30
2022-11-23T12:54:53.112Z,2.22
2022-11-23T13:00:05.761Z,2.35
2022-11-23T13:05:46.614Z,2.03
2022-11-23T13:10:59.585Z,2.08
2022-11-23T13:16:26.600Z,2.15
2022-11-23T13:21:32.505Z,2.03
2022-11-23T13:26:35.891Z,2.22
2022-11-23T13:31:40.286Z,1.73
2022-11-23T13:37:11.750Z,4.60
2022-11-23T13:42:11.371Z,2.30
2022-11-23T13:47:22.143Z,2.40
2022-11-23T13:52:32.323Z,2.50
2022-11-23T13:57:35.344Z,2.22
2022-11-23T14:02:39.561Z,2.80
2022-11-23T14:07:46.167Z,2.38
2022-11-23T14:12:51.078Z,1.60
2022-11-23T14:18:23.370Z,1.90
2022-11-23T14:24:05.416Z,1.98
2022-11-23T14:29:30.277Z,1.90
2022-11-23T14:34:41.231Z,1.98
2022-11-23T14:39:58.516Z,2.00
2022-11-23T14:45:06.145Z,2.10
2022-11-23T14:50:22.301Z,2.33
2022-11-23T14:55:27.759Z,2.47
2022-11-23T15:00:33.152Z,1.92
2022-11-23T15:05:38.202Z,1.80
2022-11-23T15:10:45.973Z,2.38
2022-11-23T15:15:52.135Z,2.10
2022-11-23T15:20:56.384Z,2.53
2022-11-23T15:26:00.443Z,2.50
2022-11-23T15:31:17.845Z,2.25
2022-11-23T15:36:25.440Z,2.08
2022-11-23T15:41:29.072Z,2.47
2022-11-23T15:46:37.232Z,2.17
2022-11-23T15:51:43.043Z,3.20
2022-11-23T15:56:49.417Z,2.70
2022-11-23T16:01:52.219Z,2.92
2022-11-23T16:06:57.318Z,2.40
2022-11-23T16:12:00.134Z,2.47
2022-11-23T16:17:07.083Z,3.00
2022-11-23T16:22:20.861Z,2.65
2022-11-23T16:27:25.543Z,2.85
2022-11-23T16:32:29.915Z,2.60
2022-11-23T16:37:34.101Z,2.60
2022-11-23T16:42:36.995Z,2.63
2022-11-23T16:47:52.837Z,2.90
2022-11-23T16:52:57.219Z,2.95
2022-11-23T16:57:59.982Z,2.85
2022-11-23T17:03:02.695Z,3.35
2022-11-23T17:08:07.076Z,4.82
2022-11-23T17:13:22.415Z,3.85
2022-11-23T17:18:25.493Z,5.15
2022-11-23T17:23:30.318Z,4.22
2022-11-23T17:28:35.194Z,4.55
2022-11-23T17:33:38.871Z,4.38
2022-11-23T17:38:47.024Z,4.40
2022-11-23T17:43:49.818Z,4.18
2022-11-23T17:48:56.583Z,3.83
2022-11-23T17:54:00.881Z,4.72
2022-11-23T17:59:04.196Z,3.83
2022-11-23T18:04:07.257Z,3.97
2022-11-23T18:09:12.406Z,4.10
2022-11-23T18:14:15.319Z,4.72
2022-11-23T18:19:18.319Z,4.25
2022-11-23T18:24:22.668Z,4.82
2022-11-23T18:29:26.241Z,4.53
2022-11-23T18:34:29.438Z,4.78
2022-11-23T18:39:34.787Z,4.22
2022-11-23T18:44:37.888Z,4.15
2022-11-23T18:49:40.673Z,4.22
2022-11-23T18:54:45.125Z,5.78
2022-11-23T18:59:58.075Z,6.10
2022-11-23T19:05:01.605Z,4.95
2022-11-23T19:10:06.259Z,5.60
2022-11-23T19:15:09.789Z,4.38
2022-11-23T19:20:13.015Z,4.75
2022-11-23T19:25:17.607Z,4.28
2022-11-23T19:30:20.468Z,4.47
2022-11-23T19:35:23.329Z,4.60
2022-11-23T19:40:29.184Z,4.75
2022-11-23T19:45:31.978Z,5.60
2022-11-23T19:50:34.914Z,6.53
2022-11-23T19:55:38.979Z,4.65
2022-11-23T20:00:45.838Z,4.38
2022-11-23T20:05:58.261Z,5.60
2022-11-23T20:11:06.984Z,5.90
2022-11-23T20:16:12.430Z,4.93
2022-11-23T20:21:17.225Z,5.10
2022-11-23T20:26:21.583Z,5.07
2022-11-23T20:31:26.795Z,5.50
2022-11-23T20:36:31.148Z,6.93
2022-11-23T20:41:36.903Z,6.60
2022-11-23T20:52:02.917Z,6.13
2022-11-23T20:57:07.120Z,6.38
2022-11-23T21:02:10.244Z,5.75
2022-11-23T21:07:13.161Z,4.88
2022-11-23T21:12:34.973Z,5.57
2022-11-23T21:17:37.786Z,5.53
2022-11-23T21:22:40.580Z,6.17
2022-11-23T21:27:44.835Z,4.60
2022-11-23T21:32:50.108Z,5.28
2022-11-23T21:37:52.924Z,5.30
2022-11-23T21:42:57.370Z,6.50
2022-11-23T21:48:00.208Z,6.47
2022-11-23T21:53:02.998Z,5.80
2022-11-23T21:58:07.195Z,5.10
2022-11-23T22:03:11.426Z,4.90
2022-11-23T22:08:28.633Z,4.57
2022-11-23T22:13:36.827Z,4.83
2022-11-23T22:18:40.044Z,4.43
2022-11-23T22:23:43.126Z,4.43
2022-11-23T22:28:48.708Z,4.40
2022-11-23T22:33:51.791Z,4.67
2022-11-23T22:39:01.080Z,4.63
2022-11-23T22:44:07.493Z,4.40
2022-11-23T22:49:10.904Z,4.40
2022-11-23T22:54:13.905Z,4.97
2022-11-23T22:59:18.115Z,5.00
2022-11-23T23:04:20.932Z,4.70
2022-11-23T23:09:23.795Z,4.13
2022-11-23T23:14:28.016Z,4.10
2022-11-23T23:19:30.836Z,4.20
2022-11-23T23:24:33.966Z,4.47
2022-11-23T23:29:38.356Z,3.73
2022-11-23T23:34:41.182Z,4.30
2022-11-23T23:39:44.114Z,4.83
2022-11-23T23:44:48.330Z,4.83
2022-11-23T23:49:51.093Z,4.77
2022-11-23T23:54:54.131Z,4.10
2022-11-23T23:59:58.314Z,4.60
